createdAt,value
2018-08-30T00:00:44.441Z,21.02
2018-08-30T00:03:13.263Z,20.27
2018-08-30T00:05:42.086Z,20.19
2018-08-30T00:08:10.454Z,20.66
2018-08-30T00:10:38.751Z,20.04
2018-08-30T00:13:07.039Z,20.48
2018-08-30T00:15:35.393Z,20.30
2018-08-30T00:18:03.684Z,20.63
2018-08-30T00:20:32.121Z,20.09
2018-08-30T00:23:00.530Z,20.37
2018-08-30T00:25:28.882Z,20.44
2018-08-30T00:27:57.351Z,20.07
2018-08-30T00:30:25.688Z,20.55
2018-08-30T00:32:53.975Z,22.11
2018-08-30T00:35:22.409Z,20.45
2018-08-30T00:37:50.756Z,20.17
2018-08-30T00:40:19.212Z,20.59
2018-08-30T00:42:47.782Z,20.56
2018-08-30T00:45:16.111Z,19.74
2018-08-30T00:47:48.225Z,19.98
2018-08-30T00:50:16.990Z,19.57
2018-08-30T00:52:45.420Z,19.79
2018-08-30T00:55:14.773Z,19.67
2018-08-30T00:57:43.310Z,19.55
2018-08-30T01:00:11.626Z,19.69
2018-08-30T01:02:39.906Z,19.66
2018-08-30T01:05:08.296Z,19.20
2018-08-30T01:07:36.882Z,19.06
2018-08-30T01:10:05.571Z,19.51
2018-08-30T01:12:33.842Z,19.45
2018-08-30T01:15:02.293Z,19.56
2018-08-30T01:17:30.562Z,19.79
2018-08-30T01:19:58.909Z,19.29
2018-08-30T01:22:27.176Z,21.66
2018-08-30T01:24:55.453Z,22.09
2018-08-30T01:27:23.726Z,20.11
2018-08-30T01:29:52.096Z,19.33
2018-08-30T01:32:20.534Z,19.11
2018-08-30T01:34:48.864Z,19.64
2018-08-30T01:37:17.156Z,20.45
2018-08-30T01:39:45.658Z,20.05
2018-08-30T01:42:14.076Z,19.58
2018-08-30T01:44:42.338Z,19.79
2018-08-30T01:47:10.646Z,20.20
2018-08-30T01:49:39.194Z,19.42
2018-08-30T01:52:07.495Z,19.54
2018-08-30T01:54:35.842Z,19.26
2018-08-30T01:57:04.230Z,18.68
2018-08-30T01:59:32.634Z,18.58
2018-08-30T02:02:01.209Z,18.91
2018-08-30T02:04:29.618Z,18.83
2018-08-30T02:06:58.101Z,18.61
2018-08-30T02:09:26.475Z,17.65
2018-08-30T02:11:54.780Z,17.68
2018-08-30T02:14:23.071Z,17.77
2018-08-30T02:16:51.338Z,18.07
2018-08-30T02:19:19.594Z,18.34
2018-08-30T02:21:47.981Z,18.18
2018-08-30T02:24:16.223Z,18.14
2018-08-30T02:26:44.539Z,18.28
2018-08-30T02:29:12.814Z,18.16
2018-08-30T02:31:41.126Z,17.92
2018-08-30T02:34:09.415Z,17.84
2018-08-30T02:36:37.696Z,18.13
2018-08-30T02:39:07.088Z,17.57
2018-08-30T02:41:35.380Z,17.87
2018-08-30T02:44:03.930Z,18.36
2018-08-30T02:46:32.192Z,17.54
2018-08-30T02:49:00.525Z,17.80
2018-08-30T02:51:28.769Z,18.01
2018-08-30T02:53:57.058Z,17.95
2018-08-30T02:56:25.314Z,18.31
2018-08-30T02:58:53.631Z,17.83
2018-08-30T03:01:22.075Z,18.25
2018-08-30T03:03:50.354Z,18.30
2018-08-30T03:06:18.653Z,18.09
2018-08-30T03:08:47.127Z,18.47
2018-08-30T03:11:15.410Z,17.48
2018-08-30T03:13:43.687Z,17.42
2018-08-30T03:16:11.962Z,17.36
2018-08-30T03:18:40.309Z,17.25
2018-08-30T03:21:08.593Z,17.33
2018-08-30T03:23:36.854Z,17.17
2018-08-30T03:26:05.139Z,17.43
2018-08-30T03:28:33.391Z,17.25
2018-08-30T03:31:01.768Z,17.80
2018-08-30T03:33:29.942Z,17.36
2018-08-30T03:35:58.369Z,17.24
2018-08-30T03:38:26.701Z,16.84
2018-08-30T03:40:55.015Z,17.13
2018-08-30T03:43:23.407Z,16.76
2018-08-30T03:45:51.818Z,17.06
2018-08-30T03:48:20.113Z,16.52
2018-08-30T03:50:48.376Z,17.24
2018-08-30T03:53:16.659Z,17.09
2018-08-30T03:55:44.918Z,16.76
2018-08-30T03:58:13.199Z,16.84
2018-08-30T04:00:41.454Z,16.90
2018-08-30T04:03:09.759Z,16.90
2018-08-30T04:05:38.014Z,16.57
2018-08-30T04:08:06.282Z,17.10
2018-08-30T04:10:34.550Z,16.93
2018-08-30T04:13:02.873Z,16.98
2018-08-30T04:15:31.150Z,16.83
2018-08-30T04:17:59.569Z,16.56
2018-08-30T04:20:28.014Z,16.77
2018-08-30T04:22:56.292Z,16.84
2018-08-30T04:25:24.589Z,16.77
2018-08-30T04:27:53.252Z,16.52
2018-08-30T04:30:21.655Z,17.01
2018-08-30T04:32:49.935Z,17.31
2018-08-30T04:35:18.203Z,17.04
2018-08-30T04:37:46.460Z,16.79
2018-08-30T04:40:14.747Z,16.41
2018-08-30T04:42:43.019Z,16.73
2018-08-30T04:45:11.279Z,16.41
2018-08-30T04:47:39.619Z,16.39
2018-08-30T04:50:07.967Z,16.02
2018-08-30T04:52:36.195Z,16.18
2018-08-30T04:55:04.473Z,16.24
2018-08-30T04:57:32.730Z,16.42
2018-08-30T05:00:01.042Z,16.43
2018-08-30T05:02:29.386Z,16.30
2018-08-30T05:04:57.668Z,16.13
2018-08-30T05:07:26.078Z,16.59
2018-08-30T05:09:54.385Z,15.97
2018-08-30T05:12:22.727Z,16.47
2018-08-30T05:14:51.075Z,16.34
2018-08-30T05:17:20.716Z,16.60
2018-08-30T05:19:48.990Z,16.17
2018-08-30T05:22:17.266Z,16.19
2018-08-30T05:24:45.606Z,16.55
2018-08-30T05:27:13.969Z,16.35
2018-08-30T05:29:46.327Z,15.58
2018-08-30T05:32:14.517Z,16.11
2018-08-30T05:34:42.787Z,16.37
2018-08-30T05:37:11.351Z,16.19
2018-08-30T05:39:39.652Z,15.91
2018-08-30T05:42:07.954Z,15.62
2018-08-30T05:44:36.246Z,16.06
2018-08-30T05:47:04.511Z,16.12
2018-08-30T05:49:32.787Z,15.87
2018-08-30T05:52:01.081Z,15.65
2018-08-30T05:54:29.370Z,16.01
2018-08-30T05:56:57.742Z,15.73
2018-08-30T05:59:25.964Z,15.89
2018-08-30T06:01:54.249Z,16.33
2018-08-30T06:04:22.702Z,16.16
2018-08-30T06:06:51.063Z,16.43
2018-08-30T06:09:19.402Z,16.44
2018-08-30T06:11:47.727Z,16.43
2018-08-30T06:14:16.050Z,16.34
2018-08-30T06:16:44.353Z,16.29
2018-08-30T06:19:12.666Z,16.13
2018-08-30T06:21:41.070Z,16.06
2018-08-30T06:24:09.462Z,16.54
2018-08-30T06:26:37.821Z,16.36
2018-08-30T06:29:06.396Z,16.33
2018-08-30T06:31:34.673Z,15.97
2018-08-30T06:34:03.096Z,16.14
2018-08-30T06:36:31.564Z,16.26
2018-08-30T06:38:59.862Z,15.72
2018-08-30T06:41:28.163Z,16.08
2018-08-30T06:43:56.486Z,16.16
2018-08-30T06:46:24.759Z,15.76
2018-08-30T06:48:53.054Z,15.87
2018-08-30T06:51:21.330Z,16.28
2018-08-30T06:53:49.659Z,16.66
2018-08-30T06:56:18.057Z,16.42
2018-08-30T06:58:46.318Z,16.38
2018-08-30T07:01:14.633Z,16.74
2018-08-30T07:03:42.886Z,16.73
2018-08-30T07:06:11.347Z,16.79
2018-08-30T07:08:39.664Z,16.52
2018-08-30T07:11:07.951Z,16.90
2018-08-30T07:13:36.251Z,16.81
2018-08-30T07:16:04.588Z,16.12
2018-08-30T07:18:32.868Z,16.73
2018-08-30T07:21:01.165Z,16.39
2018-08-30T07:23:29.434Z,16.43
2018-08-30T07:25:57.789Z,16.74
2018-08-30T07:28:26.146Z,16.74
2018-08-30T07:30:54.456Z,16.84
2018-08-30T07:33:22.857Z,16.69
2018-08-30T07:35:51.102Z,16.60
2018-08-30T07:38:19.407Z,16.50
2018-08-30T07:40:47.776Z,16.32
2018-08-30T07:43:16.051Z,16.22
2018-08-30T07:45:44.374Z,18.36
2018-08-30T07:48:12.709Z,17.25
2018-08-30T07:50:40.982Z,16.76
2018-08-30T07:53:09.360Z,16.62
2018-08-30T07:55:37.655Z,16.50
2018-08-30T07:58:06.595Z,16.71
2018-08-30T08:00:34.878Z,17.08
2018-08-30T08:03:03.611Z,16.88
2018-08-30T08:05:31.906Z,17.31
2018-08-30T08:08:00.630Z,17.07
2018-08-30T08:10:29.049Z,16.87
2018-08-30T08:12:57.319Z,16.98
2018-08-30T08:15:25.630Z,17.46
2018-08-30T08:17:53.945Z,17.44
2018-08-30T08:20:22.268Z,17.50
2018-08-30T08:22:50.580Z,17.18
2018-08-30T08:25:18.956Z,17.38
2018-08-30T08:27:47.215Z,17.81
2018-08-30T08:30:15.606Z,17.57
2018-08-30T08:32:43.887Z,17.42
2018-08-30T08:35:12.195Z,17.70
2018-08-30T08:37:40.491Z,17.49
2018-08-30T08:40:09.837Z,17.46
2018-08-30T08:42:38.156Z,17.90
2018-08-30T08:45:06.499Z,17.64
2018-08-30T08:47:34.779Z,17.04
2018-08-30T08:50:03.178Z,17.48
2018-08-30T08:52:31.470Z,17.23
2018-08-30T08:54:59.751Z,17.33
2018-08-30T08:57:28.062Z,17.73
2018-08-30T08:59:56.435Z,17.35
2018-08-30T09:02:24.744Z,17.03
2018-08-30T09:04:53.069Z,17.49
2018-08-30T09:07:21.419Z,17.40
2018-08-30T09:09:49.818Z,17.31
2018-08-30T09:12:18.128Z,17.30
2018-08-30T09:14:46.517Z,17.34
2018-08-30T09:17:14.830Z,17.60
2018-08-30T09:19:43.119Z,17.71
2018-08-30T09:22:11.416Z,17.71
2018-08-30T09:24:39.707Z,17.70
2018-08-30T09:27:08.147Z,17.62
2018-08-30T09:29:36.374Z,18.12
2018-08-30T09:32:04.806Z,17.94
2018-08-30T09:34:33.092Z,18.19
2018-08-30T09:37:01.351Z,17.76
2018-08-30T09:39:29.655Z,18.19
2018-08-30T09:41:57.914Z,17.87
2018-08-30T09:44:26.183Z,18.18
2018-08-30T09:46:54.451Z,17.93
2018-08-30T09:49:22.824Z,17.77
2018-08-30T09:51:51.064Z,17.92
2018-08-30T09:54:19.349Z,17.61
2018-08-30T09:56:47.674Z,17.73
2018-08-30T09:59:15.977Z,17.57
2018-08-30T10:01:49.040Z,18.55
2018-08-30T10:04:17.570Z,18.86
2018-08-30T10:06:45.859Z,19.16
2018-08-30T10:09:14.196Z,19.44
2018-08-30T10:11:42.486Z,19.15
2018-08-30T10:14:10.988Z,19.31
2018-08-30T10:16:39.319Z,19.52
2018-08-30T10:19:07.623Z,18.92
2018-08-30T10:21:36.005Z,18.15
2018-08-30T10:24:04.297Z,18.38
2018-08-30T10:26:32.673Z,18.34
2018-08-30T10:29:00.916Z,18.50
2018-08-30T10:31:29.459Z,18.35
2018-08-30T10:33:57.720Z,19.24
2018-08-30T10:36:26.027Z,20.02
2018-08-30T10:38:54.336Z,19.52
2018-08-30T10:41:22.632Z,19.86
2018-08-30T10:43:51.015Z,20.16
2018-08-30T10:46:19.326Z,20.87
2018-08-30T10:48:47.652Z,20.78
2018-08-30T10:51:15.991Z,21.05
2018-08-30T10:53:44.338Z,20.31
2018-08-30T10:56:12.762Z,20.04
2018-08-30T10:58:41.036Z,20.11
2018-08-30T11:01:09.330Z,20.49
2018-08-30T11:03:37.708Z,22.23
2018-08-30T11:06:06.099Z,22.76
2018-08-30T11:08:34.474Z,22.55
2018-08-30T11:11:03.131Z,22.80
2018-08-30T11:13:31.625Z,23.18
2018-08-30T11:15:59.988Z,22.82
2018-08-30T11:18:28.389Z,22.60
2018-08-30T11:20:56.836Z,24.04
2018-08-30T11:23:25.243Z,23.21
2018-08-30T11:25:53.698Z,23.24
2018-08-30T11:28:22.093Z,23.68
2018-08-30T11:30:50.564Z,21.13
2018-08-30T11:33:19.384Z,23.55
2018-08-30T11:35:47.673Z,24.42
2018-08-30T11:38:17.750Z,26.84
2018-08-30T11:40:46.834Z,27.58
2018-08-30T11:43:16.886Z,28.27
2018-08-30T11:45:46.939Z,27.83
2018-08-30T11:48:15.264Z,26.25
2018-08-30T11:50:43.529Z,25.64
2018-08-30T11:53:11.823Z,24.77
2018-08-30T11:55:40.100Z,23.65
2018-08-30T11:58:08.453Z,24.47
2018-08-30T12:00:36.790Z,24.72
2018-08-30T12:03:05.085Z,25.45
2018-08-30T12:05:33.444Z,23.74
2018-08-30T12:08:01.851Z,23.67
2018-08-30T12:10:30.571Z,21.54
2018-08-30T12:12:58.960Z,20.92
2018-08-30T12:15:27.578Z,21.76
2018-08-30T12:17:55.846Z,21.79
2018-08-30T12:20:24.143Z,21.22
2018-08-30T12:22:52.422Z,20.48
2018-08-30T12:25:20.671Z,20.03
2018-08-30T12:27:48.946Z,20.77
2018-08-30T12:30:17.237Z,20.81
2018-08-30T12:32:45.486Z,21.63
2018-08-30T12:35:13.983Z,21.80
2018-08-30T12:37:42.259Z,21.81
2018-08-30T12:40:10.673Z,20.84
2018-08-30T12:42:39.026Z,20.80
2018-08-30T12:45:07.366Z,20.83
2018-08-30T12:47:36.164Z,20.54
2018-08-30T12:50:04.578Z,21.08
2018-08-30T12:52:32.979Z,21.01
2018-08-30T12:55:01.449Z,21.14
2018-08-30T12:57:30.132Z,21.29
2018-08-30T12:59:58.783Z,21.61
2018-08-30T13:02:27.063Z,21.53
2018-08-30T13:04:55.350Z,21.68
2018-08-30T13:07:24.791Z,21.19
2018-08-30T13:09:53.676Z,20.92
2018-08-30T13:12:21.941Z,20.88
2018-08-30T13:14:50.505Z,20.85
2018-08-30T13:17:18.821Z,20.28
2018-08-30T13:19:47.252Z,23.11
2018-08-30T13:22:16.050Z,23.59
2018-08-30T13:24:44.312Z,22.82
2018-08-30T13:27:12.633Z,22.54
2018-08-30T13:29:41.044Z,22.91
2018-08-30T13:32:09.583Z,23.06
2018-08-30T13:34:37.840Z,23.44
2018-08-30T13:37:06.641Z,22.87
2018-08-30T13:39:35.087Z,22.63
2018-08-30T13:42:10.806Z,23.44
2018-08-30T13:44:39.262Z,23.45
2018-08-30T13:47:08.612Z,23.18
2018-08-30T13:49:38.213Z,23.79
2018-08-30T13:52:06.640Z,23.85
2018-08-30T13:54:36.794Z,24.34
2018-08-30T13:57:07.408Z,24.33
2018-08-30T13:59:36.778Z,23.58
2018-08-30T14:02:05.494Z,23.81
2018-08-30T14:04:33.894Z,24.19
2018-08-30T14:07:02.205Z,24.04
2018-08-30T14:09:31.299Z,23.61
2018-08-30T14:14:39.274Z,23.39
2018-08-30T14:17:08.356Z,23.52
2018-08-30T14:19:36.678Z,23.48
2018-08-30T14:22:04.918Z,23.23
2018-08-30T14:24:33.276Z,22.61
2018-08-30T14:27:01.660Z,23.39
2018-08-30T14:29:29.824Z,23.59
2018-08-30T14:31:58.172Z,23.32
2018-08-30T14:34:26.678Z,23.37
2018-08-30T14:36:55.155Z,22.88
2018-08-30T14:39:23.659Z,23.08
2018-08-30T14:41:52.087Z,22.75
2018-08-30T14:44:20.366Z,22.19
2018-08-30T14:46:48.818Z,22.71
2018-08-30T14:49:17.174Z,23.32
2018-08-30T14:51:45.543Z,23.41
2018-08-30T14:54:13.899Z,23.04
2018-08-30T14:56:42.312Z,22.27
2018-08-30T14:59:10.671Z,21.67
2018-08-30T15:01:39.025Z,22.16
2018-08-30T15:04:07.357Z,22.24
2018-08-30T15:06:35.642Z,22.60
2018-08-30T15:09:04.689Z,21.77
2018-08-30T15:11:33.946Z,21.56
2018-08-30T15:14:02.195Z,21.93
2018-08-30T15:16:30.475Z,22.03
2018-08-30T15:18:58.881Z,21.81
2018-08-30T15:21:27.194Z,21.92
2018-08-30T15:23:55.473Z,21.88
2018-08-30T15:26:23.743Z,22.46
2018-08-30T15:28:52.055Z,23.16
2018-08-30T15:31:20.398Z,22.96
2018-08-30T15:33:48.710Z,22.68
2018-08-30T15:36:17.036Z,22.43
2018-08-30T15:38:45.278Z,22.10
2018-08-30T15:41:13.798Z,22.67
2018-08-30T15:43:42.096Z,22.14
2018-08-30T15:46:10.398Z,22.22
2018-08-30T15:48:38.767Z,22.63
2018-08-30T15:51:07.173Z,22.17
2018-08-30T15:53:35.463Z,22.25
2018-08-30T15:56:03.752Z,22.58
2018-08-30T15:58:32.035Z,21.04
2018-08-30T16:01:00.385Z,20.71
2018-08-30T16:03:28.627Z,22.55
2018-08-30T16:05:56.912Z,21.30
2018-08-30T16:08:25.203Z,21.76
2018-08-30T16:10:53.522Z,22.65
2018-08-30T16:13:21.984Z,22.12
2018-08-30T16:15:50.159Z,20.84
2018-08-30T16:18:18.440Z,20.74
2018-08-30T16:20:46.744Z,20.80
2018-08-30T16:23:23.702Z,20.76
2018-08-30T16:25:51.908Z,20.62
2018-08-30T16:28:20.332Z,21.97
2018-08-30T16:30:48.644Z,21.84
2018-08-30T16:33:18.527Z,21.11
2018-08-30T16:35:46.917Z,20.65
2018-08-30T16:38:15.375Z,20.56
2018-08-30T16:40:44.085Z,20.22
2018-08-30T16:43:12.398Z,21.56
2018-08-30T16:45:40.735Z,21.52
2018-08-30T16:48:09.003Z,21.12
2018-08-30T16:50:37.297Z,21.55
2018-08-30T16:53:05.859Z,21.78
2018-08-30T16:55:34.643Z,21.75
2018-08-30T16:58:02.792Z,21.95
2018-08-30T17:00:31.067Z,21.25
2018-08-30T17:02:59.658Z,21.80
2018-08-30T17:05:28.170Z,22.18
2018-08-30T17:07:56.541Z,22.15
2018-08-30T17:10:24.852Z,21.56
2018-08-30T17:12:53.156Z,21.82
2018-08-30T17:15:21.714Z,21.89
2018-08-30T17:17:50.212Z,20.88
2018-08-30T17:20:23.954Z,20.77
2018-08-30T17:22:52.240Z,21.43
2018-08-30T17:25:20.707Z,20.73
2018-08-30T17:27:48.946Z,20.45
2018-08-30T17:30:17.302Z,20.18
2018-08-30T17:32:45.633Z,20.42
2018-08-30T17:35:13.910Z,20.06
2018-08-30T17:37:42.199Z,20.50
2018-08-30T17:40:10.463Z,20.73
2018-08-30T17:42:38.728Z,20.77
2018-08-30T17:45:07.327Z,20.17
2018-08-30T17:47:35.535Z,19.84
2018-08-30T17:50:03.787Z,20.02
2018-08-30T17:52:32.052Z,20.34
2018-08-30T17:55:00.332Z,20.27
2018-08-30T17:57:28.582Z,20.32
2018-08-30T17:59:56.829Z,18.85
2018-08-30T18:02:25.088Z,18.69
2018-08-30T18:04:53.419Z,18.20
2018-08-30T18:07:21.652Z,17.97
2018-08-30T18:09:49.974Z,18.44
2018-08-30T18:12:18.525Z,18.37
2018-08-30T18:14:46.833Z,18.36
2018-08-30T18:17:15.197Z,18.03
2018-08-30T18:19:43.669Z,17.92
2018-08-30T18:22:12.197Z,18.14
2018-08-30T18:27:13.638Z,18.15
2018-08-30T18:29:41.906Z,17.98
2018-08-30T18:32:10.173Z,18.25
2018-08-30T18:34:38.463Z,17.67
2018-08-30T18:37:06.815Z,17.67
2018-08-30T18:39:35.128Z,18.00
2018-08-30T18:42:03.398Z,17.69
2018-08-30T18:44:31.842Z,18.24
2018-08-30T18:47:00.101Z,17.83
2018-08-30T18:49:28.528Z,18.11
2018-08-30T18:51:56.784Z,18.40
2018-08-30T18:54:25.078Z,17.72
2018-08-30T18:56:53.338Z,17.82
2018-08-30T18:59:21.602Z,18.20
2018-08-30T19:01:50.066Z,17.89
2018-08-30T19:04:18.404Z,17.96
2018-08-30T19:06:46.802Z,17.48
2018-08-30T19:09:15.195Z,17.36
2018-08-30T19:11:43.569Z,17.79
2018-08-30T19:14:11.953Z,17.73
2018-08-30T19:16:45.706Z,17.49
2018-08-30T19:19:16.675Z,17.52
2018-08-30T19:21:45.105Z,17.71
2018-08-30T19:24:19.428Z,17.48
2018-08-30T19:26:47.773Z,17.38
2018-08-30T19:29:20.758Z,17.23
2018-08-30T19:31:50.289Z,17.73
2018-08-30T19:34:18.628Z,17.55
2018-08-30T19:36:46.818Z,17.52
2018-08-30T19:39:15.872Z,17.02
2018-08-30T19:41:44.185Z,17.34
2018-08-30T19:44:13.358Z,17.39
2018-08-30T19:46:43.091Z,17.24
2018-08-30T19:49:16.615Z,17.17
2018-08-30T19:51:46.203Z,16.84
2018-08-30T19:54:14.789Z,17.63
2018-08-30T19:56:43.155Z,17.62
2018-08-30T19:59:14.517Z,17.45
2018-08-30T20:01:42.772Z,17.83
2018-08-30T20:04:15.115Z,17.46
2018-08-30T20:06:43.699Z,17.49
2018-08-30T20:09:12.131Z,17.27
2018-08-30T20:11:40.668Z,17.58
2018-08-30T20:14:09.484Z,17.19
2018-08-30T20:16:39.484Z,17.26
2018-08-30T20:19:09.455Z,17.04
2018-08-30T20:21:38.060Z,16.89
2018-08-30T20:24:06.477Z,16.85
2018-08-30T20:26:34.737Z,16.54
2018-08-30T20:29:03.054Z,16.42
2018-08-30T20:31:31.372Z,16.47
2018-08-30T20:33:59.679Z,16.38
2018-08-30T20:36:28.092Z,16.32
2018-08-30T20:38:56.403Z,16.40
2018-08-30T20:41:24.712Z,16.38
2018-08-30T20:43:53.108Z,16.35
2018-08-30T20:46:21.429Z,16.13
2018-08-30T20:48:49.870Z,16.02
2018-08-30T20:51:18.272Z,15.95
2018-08-30T20:53:46.718Z,16.07
2018-08-30T20:56:15.152Z,16.10
2018-08-30T20:58:43.444Z,15.94
2018-08-30T21:01:11.699Z,15.74
2018-08-30T21:03:40.059Z,16.05
2018-08-30T21:06:08.431Z,16.13
2018-08-30T21:08:36.732Z,16.07
2018-08-30T21:11:05.348Z,16.17
2018-08-30T21:13:33.647Z,15.78
2018-08-30T21:16:01.915Z,15.59
2018-08-30T21:18:30.286Z,15.61
2018-08-30T21:20:58.695Z,15.74
2018-08-30T21:23:26.939Z,15.61
2018-08-30T21:25:55.214Z,15.66
2018-08-30T21:28:23.486Z,15.18
2018-08-30T21:30:51.783Z,15.41
2018-08-30T21:33:20.153Z,15.53
2018-08-30T21:35:48.437Z,15.50
2018-08-30T21:38:16.724Z,15.44
2018-08-30T21:40:45.002Z,15.42
2018-08-30T21:43:13.456Z,15.42
2018-08-30T21:45:41.762Z,15.43
2018-08-30T21:48:10.147Z,15.28
2018-08-30T21:50:38.386Z,15.38
2018-08-30T21:53:06.685Z,15.28
2018-08-30T21:55:34.950Z,15.20
2018-08-30T21:58:03.223Z,15.35
2018-08-30T22:00:31.593Z,15.25
2018-08-30T22:02:59.921Z,15.21
2018-08-30T22:05:28.223Z,15.28
2018-08-30T22:07:56.458Z,15.38
2018-08-30T22:10:25.030Z,15.37
2018-08-30T22:12:53.303Z,15.31
2018-08-30T22:15:21.562Z,15.50
2018-08-30T22:17:49.810Z,15.57
2018-08-30T22:20:18.112Z,15.71
2018-08-30T22:22:46.392Z,15.82
2018-08-30T22:25:14.651Z,15.97
2018-08-30T22:27:42.912Z,16.28
2018-08-30T22:30:11.319Z,16.32
2018-08-30T22:32:39.806Z,16.15
2018-08-30T22:35:08.337Z,16.25
2018-08-30T22:37:37.006Z,16.43
2018-08-30T22:40:05.901Z,16.50
2018-08-30T22:42:34.114Z,16.15
2018-08-30T22:45:02.837Z,15.89
2018-08-30T22:47:34.758Z,16.58
2018-08-30T22:50:03.175Z,16.87
2018-08-30T22:52:31.478Z,16.48
2018-08-30T22:54:59.765Z,16.74
2018-08-30T22:57:28.092Z,16.78
2018-08-30T22:59:56.316Z,16.72
2018-08-30T23:02:24.599Z,16.97
2018-08-30T23:04:53.022Z,16.97
2018-08-30T23:07:21.496Z,16.73
2018-08-30T23:09:49.884Z,16.88
2018-08-30T23:12:18.218Z,16.88
2018-08-30T23:14:46.630Z,16.42
2018-08-30T23:17:15.218Z,16.55
2018-08-30T23:19:43.667Z,16.43
2018-08-30T23:22:12.030Z,16.38
2018-08-30T23:24:40.383Z,16.24
2018-08-30T23:27:08.747Z,16.27
2018-08-30T23:29:37.114Z,16.42
2018-08-30T23:32:05.533Z,16.22
2018-08-30T23:34:33.928Z,16.15
2018-08-30T23:37:02.270Z,15.85
2018-08-30T23:39:30.750Z,15.94
2018-08-30T23:41:59.131Z,16.04
2018-08-30T23:44:27.410Z,16.31
2018-08-30T23:46:55.738Z,16.36
2018-08-30T23:49:24.204Z,16.19
2018-08-30T23:51:52.579Z,16.52
2018-08-30T23:54:20.962Z,16.49
2018-08-30T23:56:49.408Z,16.30
2018-08-30T23:59:29.071Z,16.16
